Hafnia Rainier — 9V3226 — position and weather

sailwx.info

Track history (hours):
 
Tides and Currents Weather Stations Pressure Air Temp Water Temp Dewpoint Dewpoint Depression Visibility Wind Speed Wind Dir Waves Ship Positions

Hafnia Rainier

Last reported at 2018-Apr-18 09:55 UTC. Time now 2018-Apr-27 08:43 UTC.
Position N 36°29' E 014°49'.
Warning: this ship's position is 8 days out of date.

Length 182 m; draft 7 m.

Type: Ship. MMSI: 565969000.

Date/timePositionNaut miles runAvg speedWind from/ knotsBaromVisibWave heightAir tempDewpointWater temp
2018-Apr-18 09:55N 36°29' E 014°49'711.8
2018-Apr-18 09:20N 36°29' E 014°40'513.7
2018-Apr-18 09:00N 36°29' E 014°35'612.3
2018-Apr-18 08:30N 36°32' E 014°28'713.6
2018-Apr-18 08:00N 36°36' E 014°21'714.1
2018-Apr-18 07:30N 36°38' E 014°12'713.8
2018-Apr-18 07:00N 36°42' E 014°05'713.6
2018-Apr-18 06:30N 36°45' E 013°58'713.3
2018-Apr-18 06:00N 36°49' E 013°51'713.1
2018-Apr-18 05:30N 36°52' E 013°43'713.2
2018-Apr-18 05:00N 36°55' E 013°36'713.2
2018-Apr-18 04:30N 36°58' E 013°29'  
2018-Apr-13 10:17N 40°57' E 001°38'34911.1
2018-Apr-12 02:42N 38°37' E 008°34'210.1
2018-Apr-12 02:30N 38°37' E 008°37'510.5
2018-Apr-12 01:59N 38°35' E 008°44'24211.9
2018-Apr-11 05:37N 37°00' E 013°26'112.0
2018-Apr-11 05:30N 36°60' E 013°27'2813.1
2018-Apr-11 03:23N 36°46' E 013°57'3 8.0
2018-Apr-11 03:00N 36°44' E 014°00'1412.9
2018-Apr-11 01:53N 36°37' E 014°16'511.5
2018-Apr-11 01:28N 36°34' E 014°21'612.3
2018-Apr-11 01:00N 36°31' E 014°27'713.1
2018-Apr-11 00:30N 36°29' E 014°35'5 9.8
2018-Apr-11 00:00N 36°29' E 014°41'611.5
2018-Apr-10 23:30N 36°29' E 014°48'611.1
2018-Apr-10 23:00N 36°29' E 014°55'611.7
2018-Apr-10 22:28N 36°29' E 015°03'511.3
2018-Apr-10 21:59N 36°29' E 015°10'811.2
2018-Apr-10 21:14N 36°32' E 015°19'2512.2
2018-Apr-10 19:11N 36°52' E 015°39'  
Track history (hours):
 
Tides and Currents Weather Stations Pressure Air Temp Water Temp Dewpoint Dewpoint Depression Visibility Wind Speed Wind Dir Waves Ship Positions

Hafnia Rainier

Last reported at 2018-Apr-18 09:55 UTC. Time now 2018-Apr-27 08:43 UTC.
Position N 36°29' E 014°49'.
Warning: this ship's position is 8 days out of date.

Length 182 m; draft 7 m.

Type: Ship. MMSI: 565969000.

Date/timePositionNaut miles runAvg speedWind from/ knotsBaromVisibWave heightAir tempDewpointWater temp
2018-Apr-18 09:55N 36°29' E 014°49'711.8
2018-Apr-18 09:20N 36°29' E 014°40'513.7
2018-Apr-18 09:00N 36°29' E 014°35'612.3
2018-Apr-18 08:30N 36°32' E 014°28'713.6
2018-Apr-18 08:00N 36°36' E 014°21'714.1
2018-Apr-18 07:30N 36°38' E 014°12'713.8
2018-Apr-18 07:00N 36°42' E 014°05'713.6
2018-Apr-18 06:30N 36°45' E 013°58'713.3
2018-Apr-18 06:00N 36°49' E 013°51'713.1
2018-Apr-18 05:30N 36°52' E 013°43'713.2
2018-Apr-18 05:00N 36°55' E 013°36'713.2
2018-Apr-18 04:30N 36°58' E 013°29'  
2018-Apr-13 10:17N 40°57' E 001°38'34911.1
2018-Apr-12 02:42N 38°37' E 008°34'210.1
2018-Apr-12 02:30N 38°37' E 008°37'510.5
2018-Apr-12 01:59N 38°35' E 008°44'24211.9
2018-Apr-11 05:37N 37°00' E 013°26'112.0
2018-Apr-11 05:30N 36°60' E 013°27'2813.1
2018-Apr-11 03:23N 36°46' E 013°57'3 8.0
2018-Apr-11 03:00N 36°44' E 014°00'1412.9
2018-Apr-11 01:53N 36°37' E 014°16'511.5
2018-Apr-11 01:28N 36°34' E 014°21'612.3
2018-Apr-11 01:00N 36°31' E 014°27'713.1
2018-Apr-11 00:30N 36°29' E 014°35'5 9.8
2018-Apr-11 00:00N 36°29' E 014°41'611.5
2018-Apr-10 23:30N 36°29' E 014°48'611.1
2018-Apr-10 23:00N 36°29' E 014°55'611.7
2018-Apr-10 22:28N 36°29' E 015°03'511.3
2018-Apr-10 21:59N 36°29' E 015°10'811.2
2018-Apr-10 21:14N 36°32' E 015°19'2512.2
2018-Apr-10 19:11N 36°52' E 015°39'  

Dump ship's entire track history